Time;durP1;ratioP1;P1;durP2;ratioP2;P2;SDS_P1;SDS_P2;PMS_P1;PMS_P2;Temp;Humidity;BMP_temperature;BMP_pressure;BME280_temperature;BME280_humidity;BME280_pressure;Samples;Min_cycle;Max_cycle;Signal;HPM_P1;HPM_P2
2023/05/06 00:01:57;;;;;;;8.43;6.13;;;12.00;99.90;;;;;;5114926;28;20349;-63
2023/05/06 00:04:23;;;;;;;8.10;6.18;;;12.20;99.90;;;;;;5114990;28;20047;-63
2023/05/06 00:06:50;;;;;;;7.93;5.53;;;12.10;99.90;;;;;;5103020;28;20467;-63
2023/05/06 00:09:16;;;;;;;7.65;6.85;;;12.10;99.90;;;;;;5115065;28;20040;-63
2023/05/06 00:11:42;;;;;;;7.55;5.85;;;12.10;99.90;;;;;;5114724;28;20071;-65
2023/05/06 00:14:08;;;;;;;8.90;6.28;;;12.20;99.90;;;;;;5115028;28;20085;-63
2023/05/06 00:16:35;;;;;;;8.68;5.95;;;12.10;99.90;;;;;;5114506;27;20047;-62
2023/05/06 00:19:01;;;;;;;6.78;5.40;;;12.20;99.90;;;;;;5097120;28;20043;-64
2023/05/06 00:21:27;;;;;;;9.25;5.68;;;12.20;99.90;;;;;;5114494;28;20514;-64
2023/05/06 00:23:53;;;;;;;7.47;5.75;;;12.20;99.90;;;;;;5114740;28;20048;-64
2023/05/06 00:26:20;;;;;;;7.13;5.85;;;12.20;99.90;;;;;;5119428;27;20112;-63
2023/05/06 00:28:46;;;;;;;8.40;5.70;;;12.20;99.90;;;;;;5116835;27;20480;-64
2023/05/06 00:31:12;;;;;;;7.20;5.82;;;12.10;99.90;;;;;;5135080;27;20058;-64
2023/05/06 00:33:38;;;;;;;9.98;5.70;;;12.20;99.90;;;;;;5135374;27;20047;-64
2023/05/06 00:36:05;;;;;;;7.25;5.75;;;12.10;99.90;;;;;;5129657;27;20054;-64
2023/05/06 00:38:31;;;;;;;8.95;5.85;;;12.10;99.90;;;;;;5114048;28;20039;-63
2023/05/06 00:40:57;;;;;;;7.93;6.03;;;12.10;99.90;;;;;;5114325;28;20048;-63
2023/05/06 00:43:24;;;;;;;7.90;5.72;;;12.00;99.90;;;;;;5096156;28;20487;-65
2023/05/06 00:45:50;;;;;;;7.90;5.45;;;12.00;99.90;;;;;;5095675;28;20112;-64
2023/05/06 00:48:17;;;;;;;7.50;5.85;;;12.00;99.90;;;;;;5116438;27;20066;-64
2023/05/06 00:50:44;;;;;;;7.93;6.25;;;11.90;99.90;;;;;;5134720;27;20043;-65
2023/05/06 00:53:11;;;;;;;9.55;6.13;;;11.80;99.90;;;;;;5116674;27;20389;-63
2023/05/06 00:55:38;;;;;;;8.27;5.70;;;11.90;99.90;;;;;;5133837;27;20112;-65
2023/05/06 00:58:05;;;;;;;7.28;6.50;;;11.80;99.90;;;;;;5113889;28;20542;-63
2023/05/06 01:00:31;;;;;;;9.15;5.97;;;11.80;99.90;;;;;;5114357;28;20047;-64
2023/05/06 01:02:57;;;;;;;8.63;6.03;;;11.80;99.90;;;;;;5134604;27;20050;-64
2023/05/06 01:05:31;;;;;;;6.95;5.60;;;11.80;99.90;;;;;;5115764;27;20108;-65
2023/05/06 01:08:09;;;;;;;8.70;6.38;;;11.70;99.90;;;;;;5096326;28;20048;-64
2023/05/06 01:10:45;;;;;;;7.47;6.68;;;11.70;99.90;;;;;;5113896;28;20379;-65
2023/05/06 01:13:22;;;;;;;9.05;5.95;;;11.60;99.90;;;;;;5095910;28;20058;-63
2023/05/06 01:15:53;;;;;;;7.40;5.68;;;11.70;99.90;;;;;;5095485;27;20364;-63
2023/05/06 01:18:25;;;;;;;7.43;5.28;;;11.70;99.90;;;;;;5134296;27;20054;-63
2023/05/06 01:20:53;;;;;;;8.15;6.00;;;11.70;99.90;;;;;;5134144;27;20043;-66
2023/05/06 01:23:19;;;;;;;7.85;6.20;;;11.70;99.90;;;;;;5134482;27;20047;-63
2023/05/06 01:25:45;;;;;;;8.13;6.45;;;11.70;99.90;;;;;;5131917;27;20391;-64
2023/05/06 01:28:12;;;;;;;7.53;5.82;;;11.60;99.90;;;;;;5095411;28;20099;-65
2023/05/06 01:31:03;;;;;;;8.63;5.95;;;11.50;99.90;;;;;;5095216;28;20081;-63
2023/05/06 01:33:38;;;;;;;7.65;6.32;;;11.40;99.90;;;;;;5095640;28;20417;-63
2023/05/06 01:36:14;;;;;;;7.90;6.13;;;11.50;99.90;;;;;;5097354;27;20455;-63
2023/05/06 01:38:58;;;;;;;9.35;6.15;;;11.30;99.90;;;;;;5116030;27;20072;-63
2023/05/06 01:41:26;;;;;;;8.18;6.38;;;11.40;99.90;;;;;;5133808;27;20042;-64
2023/05/06 01:43:53;;;;;;;9.02;6.35;;;11.30;99.90;;;;;;5115806;27;20088;-65
2023/05/06 01:46:21;;;;;;;9.45;6.90;;;11.40;99.90;;;;;;5109650;28;20039;-63
2023/05/06 01:48:53;;;;;;;9.27;6.18;;;11.40;99.90;;;;;;5094882;28;20062;-64
2023/05/06 01:51:21;;;;;;;8.15;6.75;;;11.40;99.90;;;;;;5094867;28;20051;-65
2023/05/06 01:53:47;;;;;;;8.63;6.60;;;11.40;99.90;;;;;;5094971;28;20062;-64
2023/05/06 01:56:13;;;;;;;8.98;7.55;;;11.50;99.90;;;;;;5098218;27;20039;-64
2023/05/06 01:58:40;;;;;;;7.90;6.53;;;11.40;99.90;;;;;;5115497;27;20043;-63
2023/05/06 02:01:06;;;;;;;8.02;6.18;;;11.40;99.90;;;;;;5115204;27;20092;-64
2023/05/06 02:03:32;;;;;;;9.45;7.50;;;11.50;99.90;;;;;;5115185;28;20051;-63
2023/05/06 02:05:58;;;;;;;9.25;7.47;;;11.40;99.90;;;;;;5130328;27;20043;-63
2023/05/06 02:08:25;;;;;;;9.82;7.68;;;11.50;99.90;;;;;;5112623;28;20467;-65
2023/05/06 02:10:51;;;;;;;8.80;7.28;;;11.50;99.90;;;;;;5113042;28;20070;-63
2023/05/06 02:13:18;;;;;;;11.38;6.78;;;11.40;99.90;;;;;;5113020;28;20408;-64
2023/05/06 02:15:45;;;;;;;10.15;8.30;;;11.50;99.90;;;;;;5094249;28;20051;-65
2023/05/06 02:18:11;;;;;;;10.63;7.03;;;11.40;99.90;;;;;;5114728;28;20047;-63
2023/05/06 02:20:37;;;;;;;8.65;7.53;;;11.40;99.90;;;;;;5115142;28;20099;-64
2023/05/06 02:23:03;;;;;;;8.75;7.55;;;11.40;99.90;;;;;;5115502;28;20050;-64
2023/05/06 02:25:30;;;;;;;11.38;7.97;;;11.50;99.90;;;;;;5132969;28;20107;-63
2023/05/06 02:27:56;;;;;;;10.30;7.65;;;11.40;99.90;;;;;;5096137;28;20481;-65
2023/05/06 02:30:22;;;;;;;11.23;8.30;;;11.40;99.90;;;;;;5112835;28;20063;-64
2023/05/06 02:32:48;;;;;;;9.10;7.40;;;11.50;99.90;;;;;;5094718;28;20066;-64
2023/05/06 02:35:15;;;;;;;10.77;7.72;;;11.50;99.90;;;;;;5112224;28;20059;-64
2023/05/06 02:37:41;;;;;;;11.35;8.15;;;11.50;99.90;;;;;;5128060;28;20055;-63
2023/05/06 02:40:08;;;;;;;10.15;8.32;;;11.50;99.90;;;;;;5114782;28;20051;-65
2023/05/06 02:42:35;;;;;;;9.57;7.68;;;11.50;99.90;;;;;;5133227;28;20467;-63
2023/05/06 02:45:01;;;;;;;11.85;9.18;;;11.40;99.90;;;;;;5114555;28;20055;-63
2023/05/06 02:47:27;;;;;;;10.88;7.70;;;11.30;99.90;;;;;;5117885;28;20051;-63
2023/05/06 02:49:54;;;;;;;9.88;7.68;;;11.30;99.90;;;;;;5094342;28;20054;-65
2023/05/06 02:52:20;;;;;;;10.68;8.20;;;11.30;99.90;;;;;;5094494;28;20062;-64
2023/05/06 02:54:46;;;;;;;11.93;8.60;;;11.30;99.90;;;;;;5112096;28;20116;-64
2023/05/06 02:57:12;;;;;;;12.68;8.43;;;11.30;99.90;;;;;;5123916;28;20054;-64
2023/05/06 02:59:38;;;;;;;10.63;8.43;;;11.20;99.90;;;;;;5133288;28;20043;-63
2023/05/06 03:02:05;;;;;;;11.95;9.38;;;11.10;99.90;;;;;;5133919;27;20043;-65
2023/05/06 03:04:31;;;;;;;12.13;8.80;;;11.00;99.90;;;;;;5118459;27;20051;-64
2023/05/06 03:06:57;;;;;;;13.02;9.88;;;11.00;99.90;;;;;;5125608;27;20108;-64
2023/05/06 03:09:23;;;;;;;14.07;10.52;;;10.90;99.90;;;;;;5116240;28;20414;-63
2023/05/06 03:11:50;;;;;;;12.82;8.95;;;10.90;99.90;;;;;;5115954;28;20376;-63
2023/05/06 03:14:16;;;;;;;12.52;8.20;;;10.90;99.90;;;;;;5115913;28;20112;-64
2023/05/06 03:16:42;;;;;;;13.02;8.90;;;10.80;99.90;;;;;;5115104;28;20055;-64
2023/05/06 03:19:08;;;;;;;11.43;8.80;;;10.80;99.90;;;;;;5116027;28;20043;-64
2023/05/06 03:21:35;;;;;;;12.98;9.30;;;10.70;99.90;;;;;;5118282;27;20584;-63
2023/05/06 03:24:01;;;;;;;13.02;10.18;;;10.70;99.90;;;;;;5118625;27;20035;-63
2023/05/06 03:26:27;;;;;;;12.48;9.27;;;10.60;99.90;;;;;;5129796;27;20044;-65
2023/05/06 03:28:53;;;;;;;12.40;9.20;;;10.60;99.90;;;;;;5097676;28;20105;-64
2023/05/06 03:31:19;;;;;;;13.18;9.93;;;10.70;99.90;;;;;;5098099;28;20043;-63
2023/05/06 03:33:46;;;;;;;13.70;9.90;;;10.70;99.90;;;;;;5097463;28;20059;-63
2023/05/06 03:36:15;;;;;;;13.13;11.23;;;10.60;99.90;;;;;;5099643;27;20341;-63
2023/05/06 03:38:41;;;;;;;13.43;10.27;;;10.50;99.90;;;;;;5117817;27;20172;-65
2023/05/06 03:41:07;;;;;;;13.27;10.55;;;10.50;99.90;;;;;;5118160;27;20055;-66
2023/05/06 03:43:34;;;;;;;13.82;11.00;;;10.40;99.90;;;;;;5118038;27;20038;-63
2023/05/06 03:46:01;;;;;;;13.20;10.10;;;10.50;99.90;;;;;;5098733;27;20047;-63
2023/05/06 03:48:27;;;;;;;17.20;10.95;;;10.50;99.90;;;;;;5097495;28;20051;-65
2023/05/06 03:50:53;;;;;;;14.30;10.48;;;10.40;99.90;;;;;;5097263;28;20058;-64
2023/05/06 03:53:20;;;;;;;14.65;10.18;;;10.40;99.90;;;;;;5097263;28;20048;-63
2023/05/06 03:55:46;;;;;;;15.15;11.13;;;10.40;99.90;;;;;;5114713;28;20052;-65
2023/05/06 03:58:12;;;;;;;14.30;10.63;;;10.50;99.90;;;;;;5114446;28;20417;-64
2023/05/06 04:00:39;;;;;;;14.35;10.32;;;10.50;99.90;;;;;;5115210;28;20043;-64
2023/05/06 04:03:05;;;;;;;12.77;9.95;;;10.40;99.90;;;;;;5115093;28;20039;-64
2023/05/06 04:05:31;;;;;;;12.75;9.65;;;10.30;99.90;;;;;;5096709;28;20060;-63
2023/05/06 04:07:57;;;;;;;15.13;10.50;;;10.40;99.90;;;;;;5114372;27;20043;-64
2023/05/06 04:10:24;;;;;;;14.35;10.75;;;10.20;99.90;;;;;;5135610;27;20112;-63
2023/05/06 04:12:51;;;;;;;13.95;10.25;;;10.30;99.90;;;;;;5135122;27;20047;-63
2023/05/06 04:15:17;;;;;;;13.55;9.93;;;10.30;99.90;;;;;;5115928;27;20050;-63
2023/05/06 04:17:43;;;;;;;15.00;11.82;;;10.20;99.90;;;;;;5100976;28;20108;-63
2023/05/06 04:20:10;;;;;;;13.93;10.80;;;10.20;99.90;;;;;;5096579;28;20040;-63
2023/05/06 04:22:37;;;;;;;16.08;10.35;;;10.30;99.90;;;;;;5096497;28;20051;-65
2023/05/06 04:25:04;;;;;;;18.80;11.10;;;10.20;99.90;;;;;;5096025;28;20070;-63
2023/05/06 04:27:31;;;;;;;15.32;10.63;;;10.20;99.90;;;;;;5096148;28;20441;-63
2023/05/06 04:29:57;;;;;;;16.60;12.02;;;10.30;99.90;;;;;;5096815;28;20399;-63
2023/05/06 04:32:26;;;;;;;15.95;10.65;;;10.20;99.90;;;;;;5114312;28;20058;-63
2023/05/06 04:34:53;;;;;;;20.95;13.38;;;10.40;99.90;;;;;;5095643;28;20456;-63
2023/05/06 04:37:20;;;;;;;16.90;11.93;;;10.40;99.90;;;;;;5087038;27;20053;-62
2023/05/06 04:39:47;;;;;;;14.50;10.93;;;10.60;99.90;;;;;;5134954;27;20051;-63
2023/05/06 04:42:15;;;;;;;15.50;12.27;;;10.70;99.90;;;;;;5116861;27;20046;-64
2023/05/06 04:44:42;;;;;;;14.02;10.48;;;10.80;99.90;;;;;;5116214;27;20039;-64
2023/05/06 04:47:08;;;;;;;15.93;12.68;;;10.90;99.90;;;;;;5124051;27;20371;-63
2023/05/06 04:49:35;;;;;;;17.00;12.15;;;10.90;99.90;;;;;;5113881;28;20047;-64
2023/05/06 04:52:01;;;;;;;17.05;12.55;;;11.20;99.90;;;;;;5096350;28;20081;-63
2023/05/06 04:54:27;;;;;;;15.80;12.38;;;11.30;99.90;;;;;;5095747;28;20044;-63
2023/05/06 04:56:53;;;;;;;15.68;12.15;;;11.30;99.90;;;;;;5099991;28;20043;-62
2023/05/06 04:59:20;;;;;;;15.45;12.02;;;11.60;99.90;;;;;;5114111;28;20054;-63
2023/05/06 05:01:46;;;;;;;14.90;11.82;;;11.90;99.90;;;;;;5113994;28;20060;-63
2023/05/06 05:04:12;;;;;;;17.92;13.68;;;12.30;99.90;;;;;;5113941;28;20414;-63
2023/05/06 05:06:38;;;;;;;16.33;12.40;;;12.60;99.90;;;;;;5109371;28;20427;-62
2023/05/06 05:09:05;;;;;;;16.40;12.73;;;13.00;99.90;;;;;;5095701;28;20051;-63
2023/05/06 05:11:31;;;;;;;16.42;12.65;;;13.20;99.90;;;;;;5096069;28;20060;-63
2023/05/06 05:13:57;;;;;;;16.00;12.43;;;13.50;99.90;;;;;;5113921;28;20051;-63
2023/05/06 05:16:23;;;;;;;17.08;13.65;;;13.80;99.90;;;;;;5112730;28;20448;-63
2023/05/06 05:18:50;;;;;;;17.60;13.70;;;13.60;99.90;;;;;;5133936;27;20039;-64
2023/05/06 05:21:16;;;;;;;15.50;13.30;;;13.20;99.90;;;;;;5133878;27;20348;-64
2023/05/06 05:23:42;;;;;;;16.30;14.10;;;13.00;99.90;;;;;;5134407;27;20104;-63
2023/05/06 05:26:09;;;;;;;16.33;14.07;;;12.80;99.90;;;;;;5113140;27;20051;-64
2023/05/06 05:28:35;;;;;;;18.13;12.82;;;12.60;99.90;;;;;;5095567;28;20047;-63
2023/05/06 05:31:02;;;;;;;19.25;15.20;;;12.60;99.90;;;;;;5095401;28;20092;-62
2023/05/06 05:33:29;;;;;;;23.50;19.63;;;12.40;99.90;;;;;;5095343;28;20120;-64
2023/05/06 05:35:56;;;;;;;21.48;15.90;;;12.50;99.90;;;;;;5112085;28;20344;-64
2023/05/06 05:38:23;;;;;;;17.83;15.38;;;12.60;99.90;;;;;;5111363;27;20039;-63
2023/05/06 05:40:49;;;;;;;16.50;14.13;;;12.60;99.90;;;;;;5115762;27;20039;-64
2023/05/06 05:43:15;;;;;;;17.65;14.63;;;12.60;99.90;;;;;;5115497;27;20049;-64
2023/05/06 05:45:42;;;;;;;19.63;14.63;;;12.70;99.90;;;;;;5115319;27;20051;-63
2023/05/06 05:48:08;;;;;;;17.63;13.80;;;12.80;99.90;;;;;;5108910;27;20058;-62
2023/05/06 05:50:34;;;;;;;19.63;14.18;;;12.80;99.90;;;;;;5102864;28;20047;-63
2023/05/06 05:53:00;;;;;;;17.40;14.70;;;12.80;99.90;;;;;;5085310;28;20350;-64
2023/05/06 05:55:28;;;;;;;17.92;14.45;;;12.70;99.90;;;;;;5083375;28;20058;-64
2023/05/06 05:57:54;;;;;;;16.95;14.85;;;12.90;99.90;;;;;;5103948;28;20399;-63
2023/05/06 06:00:21;;;;;;;18.38;14.55;;;13.00;99.90;;;;;;5084923;28;20127;-64
2023/05/06 06:02:47;;;;;;;19.63;14.90;;;13.00;99.90;;;;;;5101008;28;20052;-63
2023/05/06 06:05:13;;;;;;;19.55;14.82;;;13.10;99.90;;;;;;5084187;28;20035;-64
2023/05/06 06:07:39;;;;;;;16.20;13.73;;;13.30;99.90;;;;;;5103941;28;20048;-64
2023/05/06 06:10:06;;;;;;;17.80;15.50;;;13.60;99.90;;;;;;5083180;28;20465;-63
2023/05/06 06:12:33;;;;;;;18.90;14.88;;;13.90;99.90;;;;;;5084939;28;20054;-64
2023/05/06 06:14:59;;;;;;;16.40;13.40;;;14.10;99.90;;;;;;5084318;28;20349;-63
2023/05/06 06:17:25;;;;;;;18.25;14.20;;;14.40;99.90;;;;;;5102286;28;20063;-62
2023/05/06 06:19:55;;;;;;;17.80;13.18;;;14.60;99.90;;;;;;5103026;28;20078;-63
2023/05/06 06:22:22;;;;;;;16.13;13.52;;;14.60;99.90;;;;;;5100498;28;20044;-62
2023/05/06 06:24:50;;;;;;;16.98;14.15;;;14.50;99.90;;;;;;5100202;28;20048;-63
2023/05/06 06:27:16;;;;;;;15.63;12.57;;;14.40;99.90;;;;;;5093871;28;20043;-63
2023/05/06 06:29:42;;;;;;;16.95;13.13;;;14.40;99.90;;;;;;5105111;28;20511;-63
2023/05/06 06:32:08;;;;;;;17.75;14.27;;;14.30;99.90;;;;;;5123324;28;20106;-62
2023/05/06 06:34:35;;;;;;;16.35;14.10;;;14.40;99.90;;;;;;5113197;28;20055;-63
2023/05/06 06:37:01;;;;;;;19.85;13.52;;;14.40;99.90;;;;;;5112773;28;20409;-64
2023/05/06 06:39:28;;;;;;;17.20;13.32;;;14.40;99.90;;;;;;5116969;28;20059;-64
2023/05/06 06:41:57;;;;;;;17.27;14.30;;;14.30;99.90;;;;;;5116840;28;20313;-62
2023/05/06 06:44:23;;;;;;;18.73;14.77;;;14.50;99.90;;;;;;5116362;28;20100;-63
2023/05/06 06:46:50;;;;;;;19.42;14.63;;;14.70;99.90;;;;;;5116374;28;20066;-63
2023/05/06 06:49:16;;;;;;;18.52;13.88;;;14.80;99.90;;;;;;5098460;28;20117;-64
2023/05/06 06:51:42;;;;;;;15.93;13.52;;;14.90;99.90;;;;;;5116598;28;20071;-64
2023/05/06 06:54:08;;;;;;;16.85;13.30;;;15.00;99.90;;;;;;5098611;28;20062;-63
2023/05/06 06:56:35;;;;;;;18.00;13.60;;;15.20;99.90;;;;;;5115333;28;20055;-64
2023/05/06 06:59:01;;;;;;;15.68;13.63;;;15.30;99.90;;;;;;5098210;28;20043;-62
2023/05/06 07:01:27;;;;;;;18.48;13.82;;;15.40;99.90;;;;;;5116052;28;20047;-64
2023/05/06 07:03:53;;;;;;;17.08;14.02;;;15.60;99.90;;;;;;5116446;28;20093;-63
2023/05/06 07:06:20;;;;;;;18.40;14.48;;;15.70;99.90;;;;;;5097417;28;20048;-63
2023/05/06 07:08:46;;;;;;;17.05;13.93;;;15.90;99.90;;;;;;5116661;28;20138;-63
2023/05/06 07:11:13;;;;;;;17.85;14.07;;;16.20;99.90;;;;;;5115876;28;20085;-63
2023/05/06 07:13:39;;;;;;;17.35;14.07;;;16.80;99.90;;;;;;5116684;28;20055;-64
2023/05/06 07:16:05;;;;;;;18.25;14.88;;;17.20;99.90;;;;;;5115464;28;20048;-64
2023/05/06 07:18:32;;;;;;;18.50;15.80;;;17.50;99.90;;;;;;5095591;28;20071;-64
2023/05/06 07:20:58;;;;;;;19.35;15.77;;;17.60;99.90;;;;;;5080295;28;21286;-64
2023/05/06 07:23:25;;;;;;;18.08;15.00;;;17.40;99.90;;;;;;5080524;28;20471;-63
2023/05/06 07:25:51;;;;;;;16.85;14.38;;;17.20;99.90;;;;;;5097006;28;20056;-64
2023/05/06 07:28:17;;;;;;;16.58;14.15;;;17.00;99.90;;;;;;5094955;28;20051;-63
2023/05/06 07:30:44;;;;;;;19.45;15.02;;;16.80;99.90;;;;;;5077062;28;20519;-65
2023/05/06 07:33:11;;;;;;;15.65;13.30;;;16.80;99.90;;;;;;5095491;28;20052;-63
2023/05/06 07:35:37;;;;;;;17.85;15.35;;;17.00;99.90;;;;;;5076906;28;20456;-65
2023/05/06 07:38:03;;;;;;;16.30;13.82;;;17.20;99.90;;;;;;5076628;28;20044;-64
2023/05/06 07:40:29;;;;;;;16.58;14.75;;;17.20;99.90;;;;;;5095405;28;20342;-63
2023/05/06 07:42:56;;;;;;;18.00;14.73;;;17.20;99.90;;;;;;5077390;28;20044;-63
2023/05/06 07:45:23;;;;;;;18.02;14.35;;;17.40;99.90;;;;;;5076281;28;20040;-62
2023/05/06 07:47:49;;;;;;;17.15;14.85;;;17.40;99.90;;;;;;5105799;28;20047;-64
2023/05/06 07:50:15;;;;;;;16.15;14.00;;;17.40;99.90;;;;;;5081137;28;20048;-63
2023/05/06 07:52:42;;;;;;;16.52;14.25;;;17.50;99.90;;;;;;5094762;28;20052;-63
2023/05/06 07:55:08;;;;;;;17.65;14.27;;;17.60;99.90;;;;;;5094700;28;20044;-63
2023/05/06 07:57:35;;;;;;;17.60;13.77;;;17.60;99.90;;;;;;5086688;28;20048;-63
2023/05/06 08:00:02;;;;;;;16.85;14.40;;;17.70;99.90;;;;;;5097740;28;20465;-63
2023/05/06 08:02:30;;;;;;;14.93;13.05;;;17.80;99.90;;;;;;5097360;28;20424;-63
2023/05/06 08:04:57;;;;;;;17.98;14.85;;;17.90;99.90;;;;;;5096858;28;20364;-63
2023/05/06 08:07:23;;;;;;;19.02;14.57;;;18.10;99.90;;;;;;5103504;28;20047;-64
2023/05/06 08:09:49;;;;;;;17.35;14.35;;;18.10;99.90;;;;;;5094086;28;20055;-63
2023/05/06 08:12:16;;;;;;;17.08;14.32;;;18.20;99.90;;;;;;5076960;28;20105;-63
2023/05/06 08:14:42;;;;;;;18.50;15.00;;;18.10;99.90;;;;;;5093903;28;20523;-63
2023/05/06 08:17:08;;;;;;;18.02;13.95;;;18.30;99.90;;;;;;5076204;28;20052;-63
2023/05/06 08:19:35;;;;;;;17.50;14.73;;;18.40;99.90;;;;;;5094553;28;20143;-63
2023/05/06 08:22:01;;;;;;;19.77;14.60;;;18.50;99.90;;;;;;5076392;28;20044;-63
2023/05/06 08:24:27;;;;;;;16.58;14.00;;;18.70;99.90;;;;;;5094282;28;20105;-64
2023/05/06 08:26:54;;;;;;;17.15;14.45;;;18.80;99.90;;;;;;5090899;28;20059;-63
2023/05/06 08:29:20;;;;;;;16.63;13.93;;;18.70;99.90;;;;;;5094260;28;20127;-64
2023/05/06 08:31:46;;;;;;;17.45;15.02;;;18.70;99.90;;;;;;5093415;28;20047;-64
2023/05/06 08:34:12;;;;;;;15.88;13.48;;;18.80;99.90;;;;;;5075416;28;20055;-63
2023/05/06 08:36:39;;;;;;;16.60;14.55;;;18.70;99.90;;;;;;5075717;28;20043;-64
2023/05/06 08:39:05;;;;;;;18.30;13.40;;;18.70;99.90;;;;;;5076234;28;20113;-64
2023/05/06 08:41:35;;;;;;;15.60;13.70;;;18.70;99.90;;;;;;5094125;28;20549;-66
2023/05/06 08:44:03;;;;;;;18.23;13.77;;;18.70;99.90;;;;;;5076473;28;20434;-65
2023/05/06 08:46:30;;;;;;;16.85;13.15;;;18.80;99.90;;;;;;5075919;28;20048;-63
2023/05/06 08:48:59;;;;;;;16.05;13.73;;;18.70;99.90;;;;;;5076400;28;20101;-64
2023/05/06 08:51:28;;;;;;;15.02;12.23;;;18.90;99.90;;;;;;5075465;28;20052;-64
2023/05/06 08:53:58;;;;;;;16.17;13.70;;;19.00;99.90;;;;;;5075931;28;20052;-64
2023/05/06 08:56:28;;;;;;;16.77;12.90;;;19.00;99.90;;;;;;5075525;28;20468;-63
2023/05/06 08:58:57;;;;;;;18.05;12.98;;;19.10;99.90;;;;;;5093893;28;20048;-63
2023/05/06 09:01:26;;;;;;;15.50;13.05;;;19.20;99.90;;;;;;5093131;28;20052;-63
2023/05/06 09:03:54;;;;;;;15.65;12.18;;;19.20;99.90;;;;;;5093925;28;20044;-64
2023/05/06 09:06:22;;;;;;;15.85;12.30;;;19.30;99.90;;;;;;5092728;28;20040;-63
2023/05/06 09:08:48;;;;;;;16.05;12.35;;;19.30;99.90;;;;;;5093190;28;20380;-64
2023/05/06 09:11:20;;;;;;;14.80;11.98;;;19.40;99.90;;;;;;5075500;28;20048;-65
2023/05/06 09:13:46;;;;;;;14.65;11.70;;;19.40;99.90;;;;;;5075761;28;20373;-64
2023/05/06 09:16:28;;;;;;;14.00;11.95;;;19.50;99.90;;;;;;5074666;28;20051;-64
2023/05/06 09:18:55;;;;;;;15.65;12.43;;;19.60;99.90;;;;;;5039196;28;20113;-65
2023/05/06 09:21:31;;;;;;;15.95;12.75;;;19.60;99.90;;;;;;5072933;28;20048;-63
2023/05/06 09:23:57;;;;;;;15.27;12.88;;;19.60;99.90;;;;;;5073251;28;20044;-65
2023/05/06 09:26:26;;;;;;;14.63;12.55;;;19.70;99.90;;;;;;5074211;28;20504;-64
2023/05/06 09:28:53;;;;;;;15.68;13.52;;;19.80;99.90;;;;;;5093002;28;20483;-63
2023/05/06 09:31:19;;;;;;;17.65;12.85;;;19.80;99.90;;;;;;5093199;28;20108;-64
2023/05/06 09:33:46;;;;;;;14.95;12.93;;;20.00;99.90;;;;;;5075067;28;20052;-65
2023/05/06 09:36:12;;;;;;;18.23;13.15;;;20.00;99.90;;;;;;5092181;28;20044;-64
2023/05/06 09:38:41;;;;;;;16.95;13.93;;;20.10;99.90;;;;;;5092873;28;20048;-64
2023/05/06 09:41:08;;;;;;;19.48;12.07;;;20.20;99.90;;;;;;5092866;28;20040;-64
2023/05/06 09:43:36;;;;;;;15.13;12.20;;;20.30;99.90;;;;;;5092926;28;20413;-63
2023/05/06 09:46:04;;;;;;;14.98;12.10;;;20.30;99.90;;;;;;5092578;28;20055;-64
2023/05/06 09:48:31;;;;;;;17.55;12.50;;;20.40;99.90;;;;;;5092971;28;20460;-65
2023/05/06 09:50:58;;;;;;;15.82;11.43;;;20.40;99.90;;;;;;5092904;28;20109;-65
2023/05/06 09:53:26;;;;;;;13.73;11.93;;;20.50;99.90;;;;;;5074929;28;20051;-65
2023/05/06 09:55:55;;;;;;;15.68;12.80;;;20.50;99.90;;;;;;5074276;28;20052;-63
2023/05/06 09:58:21;;;;;;;15.88;12.80;;;20.50;99.90;;;;;;5074437;28;20055;-64
2023/05/06 10:00:50;;;;;;;13.32;11.40;;;20.50;99.90;;;;;;5074514;28;20063;-64
2023/05/06 10:03:18;;;;;;;16.05;12.68;;;20.60;99.90;;;;;;5092728;28;20106;-64
2023/05/06 10:05:45;;;;;;;13.43;10.77;;;20.50;99.90;;;;;;5091856;28;20480;-64
2023/05/06 10:08:17;;;;;;;14.38;11.05;;;20.50;99.90;;;;;;5074608;28;20056;-65
2023/05/06 10:10:45;;;;;;;;;;;20.40;99.90;;;;;;5075664;28;20130;-63
2023/05/06 10:13:13;;;;;;;15.57;11.55;;;20.30;99.90;;;;;;5091767;28;19920;-66
2023/05/06 10:15:40;;;;;;;12.10;10.38;;;20.30;99.90;;;;;;5091818;28;20353;-65
2023/05/06 10:18:08;;;;;;;14.55;11.48;;;20.40;99.90;;;;;;5092646;28;20048;-65
2023/05/06 10:20:39;;;;;;;15.52;9.70;;;20.50;99.90;;;;;;5091925;28;20456;-65
2023/05/06 10:23:50;;;;;;;14.68;10.75;;;20.50;99.90;;;;;;5074474;28;20052;-65
2023/05/06 10:26:18;;;;;;;12.43;10.30;;;20.70;99.90;;;;;;5043491;28;20043;-65
2023/05/06 10:28:49;;;;;;;14.43;11.00;;;20.80;99.90;;;;;;5095019;28;20070;-63
2023/05/06 10:31:15;;;;;;;14.25;10.90;;;20.80;99.90;;;;;;5112749;28;20047;-63
2023/05/06 10:33:46;;;;;;;12.00;9.73;;;21.00;99.90;;;;;;5112807;28;20054;-65
2023/05/06 10:36:24;;;;;;;12.43;9.23;;;21.20;99.90;;;;;;5112392;28;20064;-64
2023/05/06 10:38:55;;;;;;;11.20;9.60;;;21.20;99.90;;;;;;5132890;28;20400;-64
2023/05/06 10:41:26;;;;;;;11.90;10.23;;;21.40;99.90;;;;;;5115148;28;20500;-64
2023/05/06 10:43:56;;;;;;;8.90;7.93;;;21.50;99.90;;;;;;5115354;28;20043;-64
2023/05/06 10:46:25;;;;;;;9.25;6.90;;;21.70;99.90;;;;;;5114534;28;20055;-63
2023/05/06 10:49:03;;;;;;;10.27;6.97;;;21.70;99.90;;;;;;5114858;28;20522;-64
2023/05/06 10:51:30;;;;;;;10.77;8.88;;;21.60;99.90;;;;;;5133243;28;20043;-64
2023/05/06 10:53:58;;;;;;;11.65;9.35;;;21.60;99.90;;;;;;5114662;28;20043;-66
2023/05/06 10:56:25;;;;;;;13.35;9.95;;;21.60;99.90;;;;;;5132847;28;20191;-64
2023/05/06 10:58:54;;;;;;;14.30;10.63;;;21.70;99.90;;;;;;5133236;28;20573;-64
2023/05/06 11:01:24;;;;;;;12.32;10.63;;;21.70;99.90;;;;;;5114949;28;20348;-63
2023/05/06 11:03:51;;;;;;;11.70;9.07;;;21.70;99.90;;;;;;5115076;28;20039;-64
2023/05/06 11:06:49;;;;;;;10.18;7.72;;;21.80;99.90;;;;;;5114181;28;20069;-64
2023/05/06 11:09:21;;;;;;;9.85;7.18;;;21.90;99.90;;;;;;5112426;28;20460;-64
2023/05/06 11:11:52;;;;;;;12.13;8.57;;;21.90;99.90;;;;;;5094463;28;20384;-64
2023/05/06 11:14:26;;;;;;;10.32;7.32;;;21.80;99.90;;;;;;5112073;28;20044;-65
2023/05/06 11:16:53;;;;;;;12.38;8.40;;;21.90;99.90;;;;;;5117661;28;20108;-64
2023/05/06 11:19:23;;;;;;;11.68;8.00;;;22.00;99.90;;;;;;5114673;28;20056;-65
2023/05/06 11:21:51;;;;;;;10.30;7.60;;;22.00;99.90;;;;;;5132995;28;20435;-64
2023/05/06 11:24:28;;;;;;;9.65;7.68;;;22.10;99.90;;;;;;5117177;27;20039;-65
2023/05/06 11:26:59;;;;;;;9.55;7.20;;;22.00;99.90;;;;;;5136126;27;20055;-64
2023/05/06 11:29:25;;;;;;;8.77;7.22;;;22.10;99.90;;;;;;5136514;27;20515;-64
2023/05/06 11:31:52;;;;;;;8.93;6.55;;;22.10;99.90;;;;;;5118031;27;20059;-64
2023/05/06 11:34:27;;;;;;;8.18;6.43;;;22.00;99.90;;;;;;5117442;27;20054;-65
2023/05/06 11:37:05;;;;;;;8.85;6.10;;;22.00;99.90;;;;;;5135873;27;20043;-64
2023/05/06 11:39:33;;;;;;;8.30;5.90;;;22.30;99.90;;;;;;5118204;27;20405;-65
2023/05/06 11:42:04;;;;;;;9.13;5.97;;;22.60;99.90;;;;;;5118338;27;20092;-65
2023/05/06 11:44:38;;;;;;;9.15;5.90;;;22.80;99.90;;;;;;5117701;27;20047;-64
2023/05/06 11:47:06;;;;;;;8.77;6.05;;;22.60;99.90;;;;;;5117983;27;20050;-64
2023/05/06 11:49:42;;;;;;;8.88;4.93;;;22.80;99.90;;;;;;5117605;27;20047;-64
2023/05/06 11:52:10;;;;;;;8.02;4.80;;;22.70;99.90;;;;;;5118248;27;20067;-65
2023/05/06 11:54:40;;;;;;;8.60;5.50;;;22.80;99.90;;;;;;5117114;27;20100;-64
2023/05/06 11:57:07;;;;;;;9.48;6.43;;;22.90;99.90;;;;;;5135819;27;20078;-64
2023/05/06 11:59:36;;;;;;;10.40;6.78;;;23.10;99.90;;;;;;5117622;27;20055;-64
2023/05/06 12:02:05;;;;;;;8.93;6.90;;;23.20;99.90;;;;;;5136110;27;20095;-64
2023/05/06 12:04:42;;;;;;;10.50;7.07;;;23.30;99.90;;;;;;5135270;27;20240;-65
2023/05/06 12:07:10;;;;;;;9.75;6.00;;;23.10;99.90;;;;;;5135664;27;20051;-64
2023/05/06 12:09:42;;;;;;;10.60;7.35;;;23.20;99.90;;;;;;5117328;27;20078;-64
2023/05/06 12:12:11;;;;;;;11.23;7.95;;;23.10;99.90;;;;;;5117985;27;20055;-64
2023/05/06 12:14:38;;;;;;;11.95;7.97;;;23.00;99.90;;;;;;5135590;27;20463;-64
2023/05/06 12:17:04;;;;;;;13.27;7.18;;;23.00;99.90;;;;;;5135427;27;20372;-64
2023/05/06 12:19:32;;;;;;;9.93;6.75;;;22.90;99.70;;;;;;5135992;27;20051;-64
2023/05/06 12:22:19;;;;;;;8.73;6.13;;;22.90;99.90;;;;;;5118149;27;20092;-63
2023/05/06 12:24:46;;;;;;;10.40;5.45;;;22.80;99.70;;;;;;5135652;27;20370;-65
2023/05/06 12:27:13;;;;;;;8.95;4.78;;;22.40;99.60;;;;;;5114046;28;20467;-65
2023/05/06 12:29:50;;;;;;;10.48;6.47;;;22.30;99.90;;;;;;5097098;28;20364;-63
2023/05/06 12:32:16;;;;;;;8.25;6.03;;;22.30;99.90;;;;;;5097633;28;20090;-63
2023/05/06 12:34:43;;;;;;;6.13;4.35;;;22.30;99.90;;;;;;5096317;28;20047;-65
2023/05/06 12:37:09;;;;;;;6.88;4.53;;;22.20;99.90;;;;;;5096801;28;20044;-64